Time;durP1;ratioP1;P1;durP2;ratioP2;P2;SDS_P1;SDS_P2;PMS_P1;PMS_P2;Temp;Humidity;BMP_temperature;BMP_pressure;BME280_temperature;BME280_humidity;BME280_pressure;Samples;Min_cycle;Max_cycle;Signal;HPM_P1;HPM_P2
2020/12/25 00:00:22;;;;;;;1.92;0.75;;;21.40;52.10;;;;;;5032996;28;20030;-45
2020/12/25 00:02:48;;;;;;;1.45;0.47;;;21.40;52.10;;;;;;5029988;28;20034;-56
2020/12/25 00:05:14;;;;;;;1.13;0.60;;;21.40;52.30;;;;;;5032037;28;20025;-42
2020/12/25 00:07:39;;;;;;;1.58;0.50;;;21.40;52.20;;;;;;5032294;28;20053;-56
2020/12/25 00:10:05;;;;;;;1.83;0.60;;;21.30;52.10;;;;;;5031857;28;20075;-54
2020/12/25 00:12:30;;;;;;;1.08;0.50;;;21.40;52.30;;;;;;5031917;28;20026;-57
2020/12/25 00:14:56;;;;;;;1.15;0.43;;;21.40;51.90;;;;;;5031947;28;20471;-56
2020/12/25 00:17:22;;;;;;;0.73;0.50;;;21.40;52.00;;;;;;5032804;28;20482;-58
2020/12/25 00:19:47;;;;;;;1.13;0.45;;;21.40;52.10;;;;;;5032142;28;20076;-56
2020/12/25 00:22:13;;;;;;;1.35;0.60;;;21.40;51.90;;;;;;5032157;28;20059;-55
2020/12/25 00:24:40;;;;;;;0.90;0.45;;;21.30;51.80;;;;;;5032705;28;20025;-57
2020/12/25 00:27:06;;;;;;;1.20;0.47;;;21.30;52.00;;;;;;5030370;28;20036;-56
2020/12/25 00:29:31;;;;;;;0.63;0.40;;;21.40;51.80;;;;;;5031116;28;20025;-57
2020/12/25 00:31:57;;;;;;;1.83;0.40;;;21.30;51.80;;;;;;5028472;28;20040;-52
2020/12/25 00:34:23;;;;;;;1.98;0.50;;;21.30;51.80;;;;;;5031834;28;20025;-47
2020/12/25 00:36:48;;;;;;;1.35;0.38;;;21.30;51.80;;;;;;5029545;28;20100;-54
2020/12/25 00:39:16;;;;;;;1.17;0.77;;;21.30;52.00;;;;;;5032044;28;20048;-53
2020/12/25 00:41:43;;;;;;;0.77;0.43;;;21.30;51.70;;;;;;5032145;28;20037;-57
2020/12/25 00:44:10;;;;;;;1.38;0.40;;;21.30;51.80;;;;;;5031053;28;20029;-54
2020/12/25 00:46:37;;;;;;;0.80;0.60;;;21.30;51.70;;;;;;5031960;28;20029;-53
2020/12/25 00:49:03;;;;;;;1.42;0.40;;;21.30;51.70;;;;;;5030310;28;20033;-45
2020/12/25 00:51:29;;;;;;;0.60;0.40;;;21.30;51.50;;;;;;5032535;28;20033;-55
2020/12/25 00:53:54;;;;;;;0.80;0.40;;;21.30;52.20;;;;;;5031295;28;20375;-57
2020/12/25 00:56:20;;;;;;;1.15;0.50;;;21.30;52.00;;;;;;5031813;28;20021;-56
2020/12/25 00:58:46;;;;;;;1.02;0.35;;;21.30;51.40;;;;;;5032183;28;20031;-55
2020/12/25 01:01:13;;;;;;;0.90;0.40;;;21.30;51.60;;;;;;5029684;28;20034;-55
2020/12/25 01:03:40;;;;;;;0.63;0.38;;;21.30;51.60;;;;;;5028143;28;20108;-56
2020/12/25 01:06:13;;;;;;;1.30;0.60;;;21.30;51.30;;;;;;5030555;28;20029;-55
2020/12/25 01:08:39;;;;;;;1.83;0.60;;;21.30;51.70;;;;;;5031831;28;20429;-51
2020/12/25 01:11:06;;;;;;;1.02;0.77;;;21.30;51.30;;;;;;5031195;28;20091;-47
2020/12/25 01:13:33;;;;;;;0.65;0.47;;;21.30;51.20;;;;;;5031881;28;20105;-44
2020/12/25 01:16:07;;;;;;;0.57;0.30;;;21.30;51.20;;;;;;5030811;28;20038;-41
2020/12/25 01:18:33;;;;;;;1.45;0.20;;;21.30;51.20;;;;;;5032075;28;20033;-48
2020/12/25 01:20:59;;;;;;;0.63;0.30;;;21.30;51.30;;;;;;5029772;28;20112;-55
2020/12/25 01:23:25;;;;;;;0.70;0.32;;;21.30;51.10;;;;;;5030635;28;20371;-56
2020/12/25 01:25:51;;;;;;;0.55;0.32;;;21.30;51.40;;;;;;5026728;28;20029;-54
2020/12/25 01:28:17;;;;;;;1.52;0.60;;;21.30;51.20;;;;;;5029326;28;20022;-58
2020/12/25 01:30:43;;;;;;;0.60;0.30;;;21.30;51.20;;;;;;5031601;28;20112;-42
2020/12/25 01:33:09;;;;;;;0.40;0.40;;;21.30;51.20;;;;;;5026761;28;20095;-57
2020/12/25 01:35:35;;;;;;;0.45;0.40;;;21.30;51.00;;;;;;5031433;28;20037;-57
2020/12/25 01:38:00;;;;;;;1.38;0.47;;;21.30;51.40;;;;;;5030601;28;20054;-47
2020/12/25 01:40:26;;;;;;;0.40;0.30;;;21.30;51.60;;;;;;5031453;28;20025;-54
2020/12/25 01:42:52;;;;;;;0.60;0.40;;;21.30;51.10;;;;;;5029732;28;20327;-52
2020/12/25 01:45:17;;;;;;;1.30;0.38;;;21.30;51.40;;;;;;5031579;28;20033;-57
2020/12/25 01:47:43;;;;;;;1.33;0.47;;;21.30;51.30;;;;;;5031146;28;20026;-55
2020/12/25 01:50:09;;;;;;;0.90;0.32;;;21.30;51.00;;;;;;5030739;28;20025;-57
2020/12/25 01:52:36;;;;;;;0.40;0.30;;;21.30;51.20;;;;;;5031639;28;20038;-47
2020/12/25 01:55:06;;;;;;;0.40;0.38;;;21.30;50.90;;;;;;5032283;28;20024;-50
2020/12/25 01:57:32;;;;;;;0.47;0.32;;;21.30;51.30;;;;;;5035235;28;20104;-49
2020/12/25 01:59:59;;;;;;;1.25;0.40;;;21.30;51.10;;;;;;5034949;28;20379;-44
2020/12/25 02:02:25;;;;;;;1.38;0.38;;;21.30;51.00;;;;;;5027832;28;20037;-50
2020/12/25 02:04:52;;;;;;;0.75;0.38;;;21.30;51.00;;;;;;5034180;28;20048;-53
2020/12/25 02:07:18;;;;;;;1.52;0.40;;;21.30;50.90;;;;;;5034830;28;20116;-57
2020/12/25 02:09:44;;;;;;;0.88;0.40;;;21.30;51.10;;;;;;5035106;28;20147;-54
2020/12/25 02:12:10;;;;;;;0.95;0.40;;;21.30;50.90;;;;;;5034358;28;20158;-57
2020/12/25 02:14:35;;;;;;;0.60;0.40;;;21.30;51.20;;;;;;5033599;28;20459;-48
2020/12/25 02:17:01;;;;;;;0.77;0.47;;;21.30;50.80;;;;;;5034306;28;20037;-49
2020/12/25 02:19:27;;;;;;;0.70;0.38;;;21.30;50.80;;;;;;5034964;28;20025;-57
2020/12/25 02:21:52;;;;;;;0.88;0.43;;;21.30;50.80;;;;;;5034161;28;20068;-55
2020/12/25 02:24:18;;;;;;;2.22;0.40;;;21.30;50.70;;;;;;5034237;28;20029;-54
2020/12/25 02:26:44;;;;;;;1.15;0.57;;;21.30;50.60;;;;;;5033452;28;20091;-57
2020/12/25 02:29:10;;;;;;;1.80;0.57;;;21.20;50.50;;;;;;5032505;28;20021;-58
2020/12/25 02:31:35;;;;;;;0.32;0.30;;;21.30;50.60;;;;;;5033324;28;20040;-57
2020/12/25 02:34:01;;;;;;;0.82;0.40;;;21.20;50.50;;;;;;5030341;28;20022;-58
2020/12/25 02:36:27;;;;;;;0.38;0.38;;;21.20;50.50;;;;;;5032997;28;20471;-53
2020/12/25 02:38:52;;;;;;;0.35;0.35;;;21.20;50.50;;;;;;5031443;28;20054;-49
2020/12/25 02:41:18;;;;;;;0.95;0.47;;;21.20;50.50;;;;;;5032757;28;20043;-49
2020/12/25 02:43:44;;;;;;;0.45;0.30;;;21.10;50.40;;;;;;5030284;28;20064;-58
2020/12/25 02:46:10;;;;;;;2.35;0.30;;;21.10;50.40;;;;;;5032590;28;20033;-57
2020/12/25 02:48:36;;;;;;;1.30;0.40;;;21.10;50.40;;;;;;5032887;28;20064;-43
2020/12/25 02:51:01;;;;;;;0.65;0.30;;;21.10;50.30;;;;;;5032164;28;20075;-57
2020/12/25 02:53:27;;;;;;;0.65;0.40;;;21.10;50.40;;;;;;5032922;28;20034;-58
2020/12/25 02:55:53;;;;;;;0.60;0.30;;;21.10;50.30;;;;;;5032431;28;20026;-51
2020/12/25 02:58:18;;;;;;;1.85;0.50;;;21.10;50.20;;;;;;5033052;28;20052;-56
2020/12/25 03:00:44;;;;;;;1.63;0.40;;;21.10;50.20;;;;;;5034182;28;20025;-58
2020/12/25 03:03:10;;;;;;;0.22;0.20;;;21.10;50.30;;;;;;5031370;28;20582;-56
2020/12/25 03:05:35;;;;;;;1.63;0.30;;;21.10;50.20;;;;;;5032585;28;20032;-57
2020/12/25 03:08:01;;;;;;;1.17;0.40;;;21.10;50.20;;;;;;5031253;28;20037;-43
2020/12/25 03:10:27;;;;;;;0.82;0.50;;;21.10;50.20;;;;;;5029963;28;20032;-55
2020/12/25 03:12:52;;;;;;;0.45;0.40;;;21.10;50.10;;;;;;5032269;28;20134;-56
2020/12/25 03:15:18;;;;;;;0.50;0.40;;;21.10;50.20;;;;;;5032612;28;20112;-51
2020/12/25 03:17:44;;;;;;;1.10;0.52;;;21.10;50.20;;;;;;5032372;28;20025;-57
2020/12/25 03:20:09;;;;;;;2.45;0.73;;;21.00;50.00;;;;;;5031651;28;20056;-53
2020/12/25 03:22:35;;;;;;;0.50;0.30;;;21.00;49.90;;;;;;5032211;28;20041;-53
2020/12/25 03:25:01;;;;;;;0.88;0.30;;;21.10;50.00;;;;;;5048416;28;20366;-57
2020/12/25 03:27:26;;;;;;;0.70;0.45;;;21.00;50.00;;;;;;5033912;28;20355;-58
2020/12/25 03:29:52;;;;;;;0.70;0.45;;;21.00;49.90;;;;;;5033231;28;20470;-54
2020/12/25 03:32:18;;;;;;;0.98;0.45;;;21.00;50.00;;;;;;5033079;28;20422;-53
2020/12/25 03:34:43;;;;;;;0.45;0.40;;;21.00;50.00;;;;;;5032201;28;20025;-57
2020/12/25 03:37:09;;;;;;;0.77;0.40;;;21.00;50.00;;;;;;5032555;28;20033;-44
2020/12/25 03:39:35;;;;;;;1.30;0.30;;;21.00;49.90;;;;;;5032104;28;20030;-53
2020/12/25 03:42:00;;;;;;;2.03;0.60;;;21.00;49.90;;;;;;5032569;28;20033;-55
2020/12/25 03:44:26;;;;;;;0.90;0.43;;;21.00;50.00;;;;;;5033613;28;20120;-58
2020/12/25 03:46:52;;;;;;;0.60;0.32;;;21.00;49.90;;;;;;5033152;28;20044;-53
2020/12/25 03:49:17;;;;;;;0.93;0.40;;;21.00;50.00;;;;;;5033119;28;20465;-46
2020/12/25 03:51:43;;;;;;;1.10;0.40;;;21.00;49.90;;;;;;5033248;28;20384;-43
2020/12/25 03:54:08;;;;;;;1.50;0.50;;;20.90;49.90;;;;;;5032533;28;20036;-44
2020/12/25 03:56:34;;;;;;;0.40;0.30;;;21.00;49.90;;;;;;5033440;28;20144;-45
2020/12/25 03:59:00;;;;;;;1.15;0.60;;;21.00;49.90;;;;;;5032110;28;20036;-57
2020/12/25 04:01:25;;;;;;;0.77;0.50;;;21.00;49.90;;;;;;5033101;28;20037;-58
2020/12/25 04:03:51;;;;;;;1.63;0.40;;;21.00;49.90;;;;;;5032915;28;20032;-56
2020/12/25 04:06:17;;;;;;;1.05;0.32;;;21.00;49.80;;;;;;5032424;28;20093;-58
2020/12/25 04:08:44;;;;;;;0.63;0.38;;;20.90;49.80;;;;;;5033137;28;20032;-46
2020/12/25 04:11:10;;;;;;;0.88;0.50;;;20.90;49.80;;;;;;5032012;28;20030;-58
2020/12/25 04:13:35;;;;;;;0.75;0.40;;;20.90;49.80;;;;;;5033030;28;20120;-54
2020/12/25 04:16:02;;;;;;;0.57;0.43;;;20.90;49.70;;;;;;5032093;28;20030;-56
2020/12/25 04:18:29;;;;;;;0.95;0.43;;;20.90;49.80;;;;;;5032634;28;20026;-56
2020/12/25 04:20:57;;;;;;;0.50;0.38;;;20.90;49.70;;;;;;5031843;28;20022;-53
2020/12/25 04:23:23;;;;;;;0.82;0.40;;;20.90;49.70;;;;;;5032886;28;20034;-53
2020/12/25 04:25:49;;;;;;;0.70;0.40;;;20.90;49.70;;;;;;5032564;28;20032;-58
2020/12/25 04:28:14;;;;;;;0.75;0.40;;;20.90;49.60;;;;;;5032055;28;20049;-54
2020/12/25 04:30:40;;;;;;;0.57;0.40;;;20.90;49.70;;;;;;5032663;28;20390;-50
2020/12/25 04:33:05;;;;;;;2.58;0.52;;;20.90;49.70;;;;;;5030247;28;20028;-57
2020/12/25 04:35:31;;;;;;;1.70;0.40;;;20.90;49.70;;;;;;5032327;28;20025;-44
2020/12/25 04:37:57;;;;;;;0.70;0.40;;;20.90;49.70;;;;;;5031737;28;20046;-50
2020/12/25 04:40:22;;;;;;;0.63;0.43;;;20.90;49.50;;;;;;5032474;28;20036;-48
2020/12/25 04:42:51;;;;;;;1.08;0.40;;;20.90;49.60;;;;;;5032464;28;20368;-58
2020/12/25 04:45:18;;;;;;;0.40;0.30;;;20.90;49.60;;;;;;5031623;28;20534;-58
2020/12/25 04:47:47;;;;;;;1.08;0.50;;;20.90;49.60;;;;;;5032469;28;20112;-55
2020/12/25 04:50:13;;;;;;;0.70;0.50;;;20.90;49.50;;;;;;5030333;28;20052;-57
2020/12/25 04:52:39;;;;;;;0.65;0.50;;;20.90;49.50;;;;;;5032616;28;20061;-58
2020/12/25 04:55:06;;;;;;;0.30;0.30;;;20.90;49.50;;;;;;5031219;28;20021;-58
2020/12/25 04:57:32;;;;;;;0.90;0.47;;;20.90;49.50;;;;;;5030998;28;20462;-58
2020/12/25 04:59:58;;;;;;;1.23;0.68;;;20.90;50.10;;;;;;5031036;28;20032;-56
2020/12/25 05:02:23;;;;;;;1.85;0.43;;;20.90;49.50;;;;;;5032078;28;20091;-58
2020/12/25 05:04:49;;;;;;;1.27;0.50;;;20.90;49.40;;;;;;5030959;28;20022;-56
2020/12/25 05:07:16;;;;;;;0.43;0.30;;;20.90;49.50;;;;;;5030702;28;20052;-47
2020/12/25 05:09:41;;;;;;;0.40;0.40;;;20.90;49.50;;;;;;5030710;28;20040;-58
2020/12/25 05:12:14;;;;;;;1.67;0.73;;;20.80;49.40;;;;;;5031533;28;20025;-47
2020/12/25 05:14:42;;;;;;;1.25;0.50;;;20.80;49.60;;;;;;5032141;28;20037;-51
2020/12/25 05:17:12;;;;;;;1.23;0.40;;;20.80;49.40;;;;;;5031086;28;20025;-58
2020/12/25 05:19:40;;;;;;;0.50;0.40;;;20.90;49.50;;;;;;5030829;28;20476;-58
2020/12/25 05:22:07;;;;;;;1.15;0.50;;;20.90;49.40;;;;;;5030648;28;20029;-50
2020/12/25 05:24:38;;;;;;;0.73;0.50;;;20.80;49.40;;;;;;5031855;28;20096;-45
2020/12/25 05:27:10;;;;;;;0.73;0.57;;;20.80;49.30;;;;;;5030851;28;20040;-44
2020/12/25 05:29:38;;;;;;;2.22;0.52;;;20.80;49.40;;;;;;5034382;28;20025;-58
2020/12/25 05:32:05;;;;;;;1.65;0.40;;;20.80;49.30;;;;;;5037973;28;20033;-57
2020/12/25 05:34:34;;;;;;;0.60;0.40;;;20.80;49.30;;;;;;5038473;28;20030;-45
2020/12/25 05:37:02;;;;;;;2.00;0.50;;;20.80;49.30;;;;;;5037282;28;20029;-52
2020/12/25 05:39:33;;;;;;;0.30;0.30;;;20.80;49.30;;;;;;5038317;28;20029;-50
2020/12/25 05:42:02;;;;;;;3.50;1.90;;;20.80;49.40;;;;;;5037426;28;20034;-49
2020/12/25 05:44:30;;;;;;;0.65;0.40;;;20.80;49.20;;;;;;5037601;28;20451;-57
2020/12/25 05:46:59;;;;;;;0.80;0.50;;;20.80;49.30;;;;;;5037834;28;20021;-52
2020/12/25 05:49:27;;;;;;;0.70;0.30;;;20.80;49.20;;;;;;5038310;28;20121;-51
2020/12/25 05:51:53;;;;;;;2.47;0.77;;;20.80;49.30;;;;;;5038251;28;20033;-58
2020/12/25 05:54:26;;;;;;;1.45;0.40;;;20.80;49.30;;;;;;5037669;28;20086;-58
2020/12/25 05:56:54;;;;;;;0.40;0.30;;;20.80;49.20;;;;;;5038340;28;20030;-47
2020/12/25 05:59:31;;;;;;;0.88;0.50;;;20.80;49.40;;;;;;5037213;28;20029;-57
2020/12/25 06:02:04;;;;;;;0.50;0.38;;;20.80;49.30;;;;;;5037656;28;20033;-54
2020/12/25 06:04:31;;;;;;;0.38;0.38;;;20.80;49.30;;;;;;5037794;28;20057;-43
2020/12/25 06:06:58;;;;;;;2.15;0.32;;;20.80;49.20;;;;;;5037519;28;20029;-50
2020/12/25 06:09:31;;;;;;;0.80;0.40;;;20.80;49.20;;;;;;5037992;28;20025;-43
2020/12/25 06:11:57;;;;;;;0.60;0.40;;;20.80;49.40;;;;;;5037460;28;20036;-56
2020/12/25 06:14:23;;;;;;;1.23;0.57;;;20.80;49.30;;;;;;5037114;28;20041;-58
2020/12/25 06:17:12;;;;;;;1.40;0.70;;;20.80;49.30;;;;;;5038082;28;20025;-45
2020/12/25 06:20:00;;;;;;;1.25;0.45;;;20.80;49.30;;;;;;5038078;28;20425;-59
2020/12/25 06:22:35;;;;;;;0.90;0.50;;;20.80;49.30;;;;;;5037950;28;20467;-58
2020/12/25 06:25:06;;;;;;;1.48;0.40;;;20.80;49.40;;;;;;5037066;28;20049;-58
2020/12/25 06:27:32;;;;;;;2.05;0.45;;;20.80;49.20;;;;;;5037396;28;20055;-59
2020/12/25 06:30:01;;;;;;;4.50;0.40;;;20.80;49.30;;;;;;5037419;28;20485;-53
2020/12/25 06:32:29;;;;;;;0.50;0.40;;;20.80;49.30;;;;;;5037564;28;20076;-49
2020/12/25 06:35:01;;;;;;;0.40;0.40;;;20.80;49.20;;;;;;5037838;28;20025;-58
2020/12/25 06:37:28;;;;;;;0.93;0.38;;;20.80;49.30;;;;;;5037304;28;20049;-51
2020/12/25 06:39:57;;;;;;;0.70;0.47;;;20.80;49.30;;;;;;5037793;28;20029;-56
2020/12/25 06:42:32;;;;;;;1.55;0.40;;;20.80;49.50;;;;;;5033868;28;20034;-53
2020/12/25 06:44:59;;;;;;;0.50;0.40;;;20.80;49.30;;;;;;5033897;28;20048;-47
2020/12/25 06:47:33;;;;;;;1.13;0.40;;;20.80;49.30;;;;;;5033933;28;20029;-50
2020/12/25 06:50:06;;;;;;;0.98;0.45;;;20.80;49.30;;;;;;5034093;28;20025;-49
2020/12/25 06:52:32;;;;;;;0.90;0.60;;;20.70;49.30;;;;;;5033051;28;20021;-57
2020/12/25 06:54:58;;;;;;;0.73;0.40;;;20.70;49.20;;;;;;5033902;28;20367;-55
2020/12/25 06:57:27;;;;;;;0.57;0.50;;;20.80;49.30;;;;;;5033703;28;20022;-59
2020/12/25 06:59:53;;;;;;;0.77;0.60;;;20.70;49.30;;;;;;5034488;28;20071;-60
2020/12/25 07:02:21;;;;;;;1.20;0.38;;;20.70;49.30;;;;;;5033374;28;20712;-58
2020/12/25 07:04:49;;;;;;;0.52;0.40;;;20.70;49.20;;;;;;5033532;28;20494;-57
2020/12/25 07:07:19;;;;;;;0.85;0.50;;;20.70;49.20;;;;;;5033280;28;20120;-58
2020/12/25 07:09:47;;;;;;;0.93;0.50;;;20.70;49.30;;;;;;5033884;28;20056;-57
2020/12/25 07:12:23;;;;;;;3.63;1.48;;;20.70;49.40;;;;;;5033211;28;20042;-58
2020/12/25 07:14:50;;;;;;;0.82;0.47;;;20.70;49.20;;;;;;5033764;28;20478;-58
2020/12/25 07:17:19;;;;;;;1.42;0.45;;;20.70;49.40;;;;;;5032017;28;20084;-58
2020/12/25 07:19:44;;;;;;;1.52;0.80;;;20.70;49.40;;;;;;5033855;28;20471;-46
2020/12/25 07:22:11;;;;;;;0.90;0.40;;;20.70;49.20;;;;;;5033119;28;20037;-54
2020/12/25 07:24:41;;;;;;;0.47;0.45;;;20.70;49.20;;;;;;5033811;28;20030;-54
2020/12/25 07:27:07;;;;;;;1.40;0.40;;;20.70;49.20;;;;;;5033168;28;20091;-58
2020/12/25 07:29:34;;;;;;;0.77;0.55;;;20.70;49.60;;;;;;5033655;28;20029;-54
2020/12/25 07:32:00;;;;;;;0.80;0.63;;;20.70;49.30;;;;;;5033216;28;20445;-52
2020/12/25 07:34:26;;;;;;;0.80;0.50;;;20.70;49.30;;;;;;5032945;28;20029;-46
2020/12/25 07:36:54;;;;;;;0.25;0.25;;;20.70;49.20;;;;;;5033381;28;20037;-46
2020/12/25 07:39:21;;;;;;;1.05;0.50;;;20.70;49.20;;;;;;5032491;28;20049;-60
2020/12/25 07:41:48;;;;;;;0.57;0.40;;;20.70;49.70;;;;;;5033385;28;20060;-56
2020/12/25 07:44:13;;;;;;;0.50;0.30;;;20.70;49.10;;;;;;5032451;28;20034;-59
2020/12/25 07:46:40;;;;;;;0.75;0.50;;;20.70;49.20;;;;;;5033319;28;20040;-54
2020/12/25 07:49:06;;;;;;;1.60;0.50;;;20.70;49.20;;;;;;5032553;28;20501;-57
2020/12/25 07:51:32;;;;;;;0.60;0.60;;;20.70;49.10;;;;;;5033680;28;20034;-59
2020/12/25 07:53:59;;;;;;;1.33;0.60;;;20.70;49.20;;;;;;5032523;28;20495;-59
2020/12/25 07:56:36;;;;;;;0.50;0.40;;;20.70;49.10;;;;;;5032736;28;20022;-59
2020/12/25 07:59:05;;;;;;;1.98;1.15;;;20.70;49.10;;;;;;5031396;28;20025;-59
2020/12/25 08:01:33;;;;;;;0.45;0.45;;;20.70;49.20;;;;;;5032444;28;20030;-65
2020/12/25 08:04:01;;;;;;;1.75;0.63;;;20.70;49.20;;;;;;5028630;28;20477;-60
2020/12/25 08:06:30;;;;;;;1.50;0.50;;;20.80;49.20;;;;;;5032074;28;20020;-59
2020/12/25 08:09:10;;;;;;;6.03;0.50;;;20.80;49.20;;;;;;5031556;28;20025;-60
2020/12/25 08:11:37;;;;;;;6.45;0.93;;;20.90;49.10;;;;;;5032797;28;20090;-48
2020/12/25 08:14:08;;;;;;;2.33;0.50;;;20.90;49.30;;;;;;5031972;28;20026;-57
2020/12/25 08:16:38;;;;;;;3.47;0.45;;;20.90;49.20;;;;;;5032934;28;20163;-60
2020/12/25 08:19:06;;;;;;;2.17;0.47;;;21.00;49.20;;;;;;5032534;28;20083;-59
2020/12/25 08:21:34;;;;;;;1.13;0.50;;;20.90;49.00;;;;;;5032507;28;20483;-54
2020/12/25 08:24:04;;;;;;;1.05;0.43;;;21.00;49.00;;;;;;5030303;28;20036;-59
2020/12/25 08:26:39;;;;;;;1.70;0.70;;;21.00;49.00;;;;;;5023631;28;20026;-59
2020/12/25 08:29:05;;;;;;;3.72;0.98;;;21.00;49.00;;;;;;5032484;28;20067;-60
2020/12/25 08:31:37;;;;;;;8.73;0.90;;;21.00;48.80;;;;;;5030721;28;20558;-58
2020/12/25 08:34:04;;;;;;;1.40;0.60;;;21.00;48.90;;;;;;5032434;28;20044;-60
2020/12/25 08:36:31;;;;;;;2.00;0.40;;;21.00;48.80;;;;;;5031914;28;20639;-64
2020/12/25 08:38:58;;;;;;;4.68;0.40;;;21.00;48.80;;;;;;5032207;28;20053;-62
2020/12/25 08:41:27;;;;;;;1.58;0.75;;;21.00;48.70;;;;;;5031297;28;20124;-52
2020/12/25 08:43:54;;;;;;;3.25;0.70;;;21.00;48.70;;;;;;5032267;28;20541;-61
2020/12/25 08:46:24;;;;;;;3.35;0.63;;;21.00;48.70;;;;;;5031072;28;20029;-59
2020/12/25 08:48:52;;;;;;;5.07;0.82;;;21.00;48.70;;;;;;5032053;28;20036;-61
2020/12/25 08:51:19;;;;;;;2.38;0.77;;;21.10;48.70;;;;;;5031660;28;20033;-52
2020/12/25 08:53:53;;;;;;;3.05;0.68;;;21.10;48.50;;;;;;5032067;28;20026;-60
2020/12/25 08:56:21;;;;;;;1.33;0.52;;;21.10;48.40;;;;;;5031494;28;20030;-58
2020/12/25 08:59:04;;;;;;;4.28;0.70;;;21.10;48.50;;;;;;5032326;28;20025;-60
2020/12/25 09:01:31;;;;;;;2.17;0.80;;;21.10;48.40;;;;;;5030792;28;20124;-47
2020/12/25 09:04:00;;;;;;;3.40;1.25;;;21.10;48.30;;;;;;5031070;28;20075;-58
2020/12/25 09:06:27;;;;;;;1.98;0.57;;;21.10;48.30;;;;;;5030932;28;20025;-58
2020/12/25 09:08:53;;;;;;;4.45;0.73;;;21.20;48.30;;;;;;5032125;28;20379;-51
2020/12/25 09:11:24;;;;;;;1.15;0.50;;;21.20;48.20;;;;;;5031625;28;20022;-58
2020/12/25 09:13:51;;;;;;;7.27;0.90;;;21.20;48.20;;;;;;5032143;28;20026;-55
2020/12/25 09:16:18;;;;;;;3.25;0.63;;;21.20;48.20;;;;;;5031276;28;20034;-41
2020/12/25 09:18:44;;;;;;;5.35;1.33;;;21.20;48.40;;;;;;5032030;28;20029;-55
2020/12/25 09:21:11;;;;;;;2.50;0.60;;;21.20;48.30;;;;;;5031236;28;20043;-58
2020/12/25 09:23:38;;;;;;;5.25;0.73;;;21.20;48.40;;;;;;5030002;28;20029;-58
2020/12/25 09:26:09;;;;;;;1.77;0.63;;;21.20;48.30;;;;;;5030423;28;20022;-57
2020/12/25 09:28:36;;;;;;;2.90;1.45;;;21.20;48.20;;;;;;5031802;28;20052;-55
2020/12/25 09:31:05;;;;;;;1.70;0.80;;;21.20;48.40;;;;;;5030712;28;20025;-57
2020/12/25 09:33:30;;;;;;;1.33;0.50;;;21.20;48.20;;;;;;5031231;28;20100;-51
2020/12/25 09:35:56;;;;;;;4.20;0.95;;;21.20;48.20;;;;;;5031920;28;20489;-55
2020/12/25 09:38:23;;;;;;;4.22;0.70;;;21.20;48.10;;;;;;5030989;28;20059;-59
2020/12/25 09:40:51;;;;;;;2.05;0.60;;;21.20;48.20;;;;;;5031641;28;20037;-54
2020/12/25 09:43:18;;;;;;;1.85;0.80;;;21.30;48.10;;;;;;5027083;28;20041;-54
2020/12/25 09:45:44;;;;;;;3.38;0.73;;;21.30;48.10;;;;;;5031606;28;20041;-55
2020/12/25 09:48:10;;;;;;;3.78;0.75;;;21.20;48.10;;;;;;5031279;28;20351;-54
2020/12/25 09:50:37;;;;;;;1.30;0.70;;;21.20;48.10;;;;;;5031705;28;20033;-58
2020/12/25 09:53:04;;;;;;;2.15;0.90;;;21.30;48.00;;;;;;5030372;28;20549;-58
2020/12/25 09:55:36;;;;;;;2.95;0.63;;;21.20;48.00;;;;;;5030759;28;20032;-58
2020/12/25 09:58:02;;;;;;;0.90;0.65;;;21.20;48.10;;;;;;5026578;28;20029;-56
2020/12/25 10:00:28;;;;;;;1.98;0.73;;;21.20;47.90;;;;;;5030541;28;20029;-62
2020/12/25 10:02:55;;;;;;;4.07;0.82;;;21.20;48.00;;;;;;5030641;28;20036;-61
2020/12/25 10:05:21;;;;;;;7.45;1.00;;;21.30;48.00;;;;;;5030363;28;20056;-59
2020/12/25 10:07:51;;;;;;;3.55;1.00;;;21.30;48.10;;;;;;5031704;28;20029;-54
2020/12/25 10:10:18;;;;;;;2.75;1.00;;;21.30;48.40;;;;;;5030750;28;20017;-58
2020/12/25 10:12:43;;;;;;;2.70;0.80;;;21.30;48.60;;;;;;5030691;28;20033;-55
2020/12/25 10:15:09;;;;;;;5.85;1.00;;;21.30;48.60;;;;;;5030453;28;20091;-51
2020/12/25 10:17:35;;;;;;;8.32;0.90;;;21.30;48.90;;;;;;5037124;28;20444;-56
2020/12/25 10:20:01;;;;;;;6.25;1.05;;;21.30;48.70;;;;;;5033395;28;20107;-56
2020/12/25 10:22:27;;;;;;;4.60;0.90;;;21.30;48.80;;;;;;5034102;28;20033;-57
2020/12/25 10:24:53;;;;;;;3.22;0.95;;;21.30;48.90;;;;;;5033536;28;20033;-58
2020/12/25 10:27:20;;;;;;;11.23;1.08;;;21.40;48.80;;;;;;5034125;28;20386;-56
2020/12/25 10:29:46;;;;;;;6.07;1.58;;;21.40;49.10;;;;;;5038777;28;20060;-57
2020/12/25 10:32:13;;;;;;;5.53;1.10;;;21.50;49.20;;;;;;5033751;28;20029;-56
2020/12/25 10:34:39;;;;;;;4.53;1.05;;;21.50;49.50;;;;;;5034426;28;20037;-55
2020/12/25 10:37:05;;;;;;;10.73;2.75;;;21.50;49.50;;;;;;5034441;28;20064;-58
2020/12/25 10:39:30;;;;;;;10.95;1.85;;;21.50;49.60;;;;;;5032391;28;20494;-50
2020/12/25 10:41:57;;;;;;;6.43;1.00;;;21.50;49.80;;;;;;5033541;28;20067;-60
2020/12/25 10:44:23;;;;;;;4.68;1.00;;;21.60;49.80;;;;;;5031571;28;20100;-60
2020/12/25 10:46:49;;;;;;;7.72;1.42;;;21.50;50.00;;;;;;5034284;28;20451;-62
2020/12/25 10:49:16;;;;;;;3.85;0.80;;;21.50;50.20;;;;;;5033594;28;20104;-62
2020/12/25 10:51:48;;;;;;;4.53;1.20;;;21.50;50.20;;;;;;5033780;28;20025;-52
2020/12/25 10:54:22;;;;;;;9.77;2.45;;;21.50;50.50;;;;;;5035116;28;20021;-53
2020/12/25 10:56:49;;;;;;;2.97;0.85;;;21.50;50.40;;;;;;5033810;28;20121;-54
2020/12/25 10:59:15;;;;;;;5.95;0.88;;;21.50;50.40;;;;;;5033515;28;20037;-62
2020/12/25 11:01:41;;;;;;;6.47;0.95;;;21.60;50.40;;;;;;5033773;28;20390;-61
2020/12/25 11:04:07;;;;;;;6.13;1.10;;;21.60;50.30;;;;;;5030519;28;20040;-61
2020/12/25 11:06:35;;;;;;;10.18;2.45;;;21.60;50.40;;;;;;5021166;28;20029;-65
2020/12/25 11:09:04;;;;;;;5.28;1.63;;;21.60;50.30;;;;;;5020726;28;20028;-60
2020/12/25 11:11:32;;;;;;;7.70;1.25;;;21.60;50.60;;;;;;5031404;28;20037;-61
2020/12/25 11:13:59;;;;;;;8.63;1.73;;;21.50;50.50;;;;;;5033621;28;20390;-63
2020/12/25 11:16:28;;;;;;;7.18;2.55;;;21.60;50.60;;;;;;5032930;28;20033;-62
2020/12/25 11:18:56;;;;;;;5.43;1.00;;;21.70;50.30;;;;;;5032789;28;20025;-66
2020/12/25 11:21:24;;;;;;;6.22;1.30;;;21.70;50.10;;;;;;5032843;28;20494;-57
2020/12/25 11:23:52;;;;;;;3.55;1.05;;;21.60;50.30;;;;;;5033589;28;20037;-62
2020/12/25 11:26:39;;;;;;;4.75;1.00;;;21.60;50.20;;;;;;5032553;28;20044;-61
2020/12/25 11:29:06;;;;;;;5.45;0.93;;;21.60;50.40;;;;;;5032736;28;20557;-60
2020/12/25 11:31:34;;;;;;;3.75;0.85;;;21.60;50.20;;;;;;5032651;28;20040;-65
2020/12/25 11:34:00;;;;;;;4.38;0.98;;;21.60;50.20;;;;;;5032508;28;20492;-64
2020/12/25 11:36:34;;;;;;;5.00;1.75;;;21.60;50.10;;;;;;5032813;28;20084;-61
2020/12/25 11:39:01;;;;;;;2.35;1.10;;;21.60;50.10;;;;;;5030910;28;20461;-58
2020/12/25 11:41:27;;;;;;;2.97;0.95;;;21.70;50.10;;;;;;5032224;28;20080;-62
2020/12/25 11:43:54;;;;;;;3.78;0.82;;;21.70;49.80;;;;;;5033395;28;20037;-60
2020/12/25 11:46:23;;;;;;;8.32;1.05;;;21.70;49.80;;;;;;5032616;28;20034;-62
2020/12/25 11:48:49;;;;;;;2.65;0.80;;;21.70;49.90;;;;;;5032318;28;20441;-62
2020/12/25 11:51:17;;;;;;;4.85;1.10;;;21.70;50.00;;;;;;5031345;28;20037;-60
2020/12/25 11:53:43;;;;;;;6.40;1.00;;;21.70;50.00;;;;;;5033367;28;20022;-60
2020/12/25 11:56:09;;;;;;;3.50;0.98;;;21.70;50.00;;;;;;5033182;28;20030;-58
2020/12/25 11:58:34;;;;;;;7.10;0.90;;;21.60;50.10;;;;;;5032580;28;20036;-63
2020/12/25 12:01:00;;;;;;;6.53;1.55;;;21.70;50.00;;;;;;5032675;28;20037;-67
2020/12/25 12:03:26;;;;;;;2.88;1.02;;;21.70;50.10;;;;;;5032196;28;20043;-76
2020/12/25 12:05:52;;;;;;;7.70;1.08;;;21.60;50.00;;;;;;5032869;28;20029;-60
2020/12/25 12:08:18;;;;;;;2.40;1.10;;;21.70;49.90;;;;;;5032272;28;20026;-68
2020/12/25 12:10:44;;;;;;;4.95;0.90;;;21.70;50.00;;;;;;5032874;28;20538;-67
2020/12/25 12:13:09;;;;;;;8.40;1.10;;;21.70;50.20;;;;;;5032332;28;20099;-66
2020/12/25 12:15:39;;;;;;;9.15;1.23;;;21.60;50.10;;;;;;5030979;28;20037;-60
2020/12/25 12:18:06;;;;;;;3.05;0.80;;;21.70;49.90;;;;;;5032995;28;20037;-68
2020/12/25 12:20:33;;;;;;;3.72;1.40;;;21.60;49.70;;;;;;5032599;28;20112;-65
2020/12/25 12:23:00;;;;;;;2.58;0.65;;;21.70;49.70;;;;;;5032591;28;20379;-69
2020/12/25 12:25:26;;;;;;;7.65;0.80;;;21.70;49.70;;;;;;5031981;28;20025;-50
2020/12/25 12:27:51;;;;;;;4.35;0.85;;;21.70;49.60;;;;;;5032832;28;20025;-66
2020/12/25 12:30:17;;;;;;;3.50;0.88;;;21.60;49.60;;;;;;5032087;28;20030;-69
2020/12/25 12:32:43;;;;;;;3.08;0.80;;;21.70;49.60;;;;;;5032479;28;20030;-60
2020/12/25 12:35:09;;;;;;;2.75;0.98;;;21.70;49.50;;;;;;5032584;28;20117;-65
2020/12/25 12:37:34;;;;;;;3.08;0.95;;;21.70;49.40;;;;;;5031369;28;20641;-68
2020/12/25 12:40:00;;;;;;;3.63;1.48;;;21.70;49.40;;;;;;5032463;28;20017;-54
2020/12/25 12:42:25;;;;;;;4.43;0.95;;;21.70;49.50;;;;;;5031531;28;20091;-61
2020/12/25 12:44:51;;;;;;;5.88;0.90;;;21.70;49.70;;;;;;5032091;28;20088;-60